Time;durP1;ratioP1;P1;durP2;ratioP2;P2;SDS_P1;SDS_P2;PMS_P1;PMS_P2;Temp;Humidity;BMP_temperature;BMP_pressure;BME280_temperature;BME280_humidity;BME280_pressure;Samples;Min_cycle;Max_cycle;Signal;HPM_P1;HPM_P2
2022/03/27 00:01:14;;;;;;;;;;;7.90;77.50;;;7.19;52.79;98275.34;5058615;28;19919;-84
2022/03/27 00:03:40;;;;;;;;;;;7.90;77.60;;;7.23;52.98;98295.44;5066061;28;19919;-84
2022/03/27 00:06:06;;;;;;;;;;;7.80;79.10;;;7.18;53.81;98301.63;5061552;28;20175;-86
2022/03/27 00:08:31;;;;;;;;;;;7.70;78.90;;;7.06;53.90;98302.59;5061520;28;19951;-84
2022/03/27 00:13:41;;;;;;;;;;;7.60;78.30;;;7.05;53.46;98299.09;5066278;28;20519;-85
2022/03/27 00:16:09;;;;;;;;;;;7.60;78.50;;;6.99;53.47;98293.03;5062036;28;19912;-85
2022/03/27 00:18:36;;;;;;;;;;;7.60;78.50;;;7.10;53.25;98311.28;5062045;28;19927;-84
2022/03/27 00:21:05;;;;;;;;;;;7.60;78.40;;;6.74;52.94;98260.88;5079864;28;19916;-86
2022/03/27 00:23:31;;;;;;;;;;;7.60;78.10;;;7.14;52.70;98313.91;5079706;28;19927;-85
2022/03/27 00:25:56;;;;;;;;;;;7.60;77.90;;;6.99;52.29;98287.78;5059917;28;19920;-84
2022/03/27 00:28:22;;;;;;;;;;;7.50;77.70;;;6.76;52.77;98253.88;5062550;28;19920;-85
2022/03/27 00:30:48;;;;;;;;;;;7.50;77.90;;;6.85;52.54;98280.88;5065625;28;20352;-86
2022/03/27 00:33:14;;;;;;;;;;;7.50;77.80;;;6.88;53.00;98303.59;5077034;28;19955;-88
2022/03/27 00:35:39;;;;;;;;;;;7.40;78.20;;;6.79;53.21;98280.06;5097278;28;19923;-88
2022/03/27 00:38:07;;;;;;;;;;;7.40;78.10;;;6.83;53.03;98280.03;5074617;28;19920;-84
2022/03/27 00:40:33;;;;;;;;;;;7.40;78.30;;;6.88;52.68;98283.47;5084573;28;19917;-84
2022/03/27 00:42:59;;;;;;;;;;;7.40;78.10;;;7.02;52.54;98299.13;5093114;28;19982;-85
2022/03/27 00:45:25;;;;;;;;;;;7.40;78.00;;;6.87;52.75;98260.78;5067850;28;21248;-85
2022/03/27 00:47:51;;;;;;;;;;;7.50;78.20;;;7.05;53.55;98292.97;5066798;28;20331;-84
2022/03/27 00:50:16;;;;;;;;;;;7.50;78.90;;;6.88;54.64;98283.47;5066625;28;19916;-85
2022/03/27 00:52:42;;;;;;;;;;;7.40;79.70;;;6.59;54.25;98246.16;5087861;28;19955;-86
2022/03/27 00:55:08;;;;;;;;;;;7.40;79.60;;;6.77;54.21;98277.47;5083244;28;19923;-85
2022/03/27 00:57:33;;;;;;;;;;;7.40;79.40;;;6.68;54.71;98282.78;5084502;28;19948;-85
2022/03/27 00:59:59;;;;;;;;;;;7.30;79.90;;;6.59;54.85;98280.22;5070781;28;19924;-83
2022/03/27 01:02:25;;;;;;;;;;;7.20;80.10;;;6.72;53.89;98296.72;5069391;28;20434;-85
2022/03/27 01:04:54;;;;;;;;;;;7.20;79.40;;;6.60;54.06;98279.31;5088788;28;19965;-85
2022/03/27 01:07:19;;;;;;;;;;;7.20;80.30;;;6.58;54.60;98287.19;5070122;28;19977;-85
2022/03/27 01:09:46;;;;;;;;;;;7.10;79.70;;;6.57;54.87;98295.97;5068300;28;19915;-85
2022/03/27 01:12:14;;;;;;;;;;;7.10;80.90;;;6.53;55.11;98288.97;5072952;28;19999;-85
2022/03/27 01:14:40;;;;;;;;;;;7.00;80.20;;;6.25;55.20;98260.34;5073455;28;19928;-85
2022/03/27 01:17:08;;;;;;;;;;;7.00;80.30;;;6.41;55.63;98289.09;5090114;28;19976;-85
2022/03/27 01:19:44;;;;;;;;;;;6.90;80.60;;;6.17;55.71;98253.41;5070545;28;19916;-85
2022/03/27 01:22:10;;;;;;;;;;;6.90;81.00;;;5.98;56.06;98235.19;5089214;28;20593;-85
2022/03/27 01:24:36;;;;;;;;;;;6.80;81.00;;;6.17;56.34;98271.72;5068850;28;20017;-84
2022/03/27 01:27:03;;;;;;;;;;;6.80;81.50;;;5.95;56.92;98236.91;5073391;28;20448;-85
2022/03/27 01:29:29;;;;;;;;;;;6.70;81.90;;;6.00;57.30;98267.47;5068545;28;20198;-85
2022/03/27 01:31:56;;;;;;;;;;;6.70;82.10;;;6.08;58.40;98283.13;5076049;28;19912;-85
2022/03/27 01:34:21;;;;;;;;;;;6.60;82.80;;;5.53;57.60;98200.47;5054160;28;20286;-85
2022/03/27 01:36:47;;;;;;;;;;;6.60;82.50;;;6.05;57.33;98291.03;5070549;28;19981;-84
2022/03/27 01:39:14;;;;;;;;;;;6.50;82.30;;;5.71;57.31;98221.31;5064667;28;20035;-85
2022/03/27 01:41:40;;;;;;;;;;;6.50;82.20;;;5.93;57.06;98269.19;5068373;28;20976;-85
2022/03/27 01:44:07;;;;;;;;;;;6.50;82.20;;;5.81;57.36;98248.28;5065451;28;20043;-84
2022/03/27 01:46:35;;;;;;;;;;;6.50;82.30;;;5.86;57.16;98257.00;5065872;28;19971;-84
2022/03/27 01:49:03;;;;;;;;;;;6.50;82.20;;;5.90;57.26;98261.38;5066178;28;19919;-85
2022/03/27 01:51:29;;;;;;;;;;;6.50;82.20;;;5.77;56.68;98227.41;5052257;28;20010;-85
2022/03/27 01:53:54;;;;;;;;;;;6.50;82.10;;;5.92;56.51;98253.47;5065367;28;20399;-87
2022/03/27 01:56:20;;;;;;;;;;;6.50;81.80;;;5.91;56.12;98260.47;5068896;28;20263;-84
2022/03/27 01:58:46;;;;;;;;;;;6.50;81.50;;;5.92;56.35;98259.63;5068955;28;19916;-83
2022/03/27 02:01:11;;;;;;;;;;;6.50;81.70;;;6.01;56.20;98263.09;5061688;28;19916;-85
2022/03/27 02:03:37;;;;;;;;;;;6.50;81.70;;;5.74;57.20;98231.78;5056240;28;19926;-85
2022/03/27 02:06:05;;;;;;;;;;;6.50;82.20;;;5.86;59.03;98270.09;5068637;28;19924;-85
2022/03/27 02:08:34;;;;;;;;;;;6.40;83.60;;;5.26;59.80;98193.59;5073710;28;19912;-85
2022/03/27 02:11:01;;;;;;;;;;;6.30;84.20;;;5.73;59.14;98269.28;5072100;28;19924;-85
2022/03/27 02:13:27;;;;;;;;;;;6.30;84.10;;;5.61;59.31;98261.47;5072414;28;19928;-85
2022/03/27 02:15:55;;;;;;;;;;;6.20;84.00;;;5.46;59.37;98228.38;5065915;28;19923;-85
2022/03/27 02:18:20;;;;;;;;;;;6.20;84.30;;;5.50;59.57;98237.09;5070884;28;19927;-84
2022/03/27 02:20:46;;;;;;;;;;;6.20;84.50;;;5.57;60.10;98248.41;5066848;28;19919;-84
2022/03/27 02:23:12;;;;;;;;;;;6.20;84.80;;;5.53;60.62;98255.41;5069670;28;20355;-85
2022/03/27 02:25:38;;;;;;;;;;;6.10;84.90;;;5.34;61.00;98238.88;5068609;28;19916;-85
2022/03/27 02:28:09;;;;;;;;;;;6.10;85.30;;;5.20;61.58;98220.59;5082558;28;19923;-84
2022/03/27 02:30:35;;;;;;;;;;;6.00;85.90;;;5.28;62.53;98238.91;5081505;28;20010;-85
2022/03/27 02:33:02;;;;;;;;;;;6.00;86.60;;;5.37;63.12;98261.56;5063645;28;20010;-86
2022/03/27 02:35:27;;;;;;;;;;;5.90;87.00;;;5.21;63.13;98240.66;5065606;28;19923;-85
2022/03/27 02:37:53;;;;;;;;;;;5.90;87.20;;;5.38;63.13;98268.50;5051163;28;19919;-85
2022/03/27 02:40:19;;;;;;;;;;;5.90;87.30;;;5.42;63.35;98265.00;5066486;28;20292;-85
2022/03/27 02:42:44;;;;;;;;;;;5.90;87.40;;;5.24;62.94;98238.03;5071263;28;20315;-85
2022/03/27 02:45:10;;;;;;;;;;;5.90;87.30;;;5.24;63.21;98242.38;5066674;28;19920;-85
2022/03/27 02:47:36;;;;;;;;;;;5.90;87.20;;;5.27;63.00;98245.00;5064445;28;20011;-85
2022/03/27 02:50:04;;;;;;;;;;;5.90;87.30;;;5.34;63.95;98267.66;5044850;28;19916;-86
2022/03/27 02:52:30;;;;;;;;;;;5.90;87.90;;;5.10;64.85;98238.06;5061354;28;19913;-85
2022/03/27 02:54:56;;;;;;;;;;;5.80;88.50;;;5.05;65.30;98242.41;5060956;28;19925;-85
2022/03/27 02:57:22;;;;;;;;;;;5.80;88.90;;;5.11;65.31;98250.25;5060245;28;19930;-85
2022/03/27 02:59:47;;;;;;;;;;;5.80;89.00;;;5.01;65.78;98230.22;5062660;28;19974;-85
2022/03/27 03:02:13;;;;;;;;;;;5.80;89.20;;;5.15;65.10;98248.50;5072532;28;19915;-88
2022/03/27 03:04:39;;;;;;;;;;;5.80;89.00;;;5.06;64.97;98230.22;5085996;28;20171;-87
2022/03/27 03:07:05;;;;;;;;;;;5.80;88.80;;;5.04;65.06;98226.72;5077391;28;19916;-85
2022/03/27 03:09:31;;;;;;;;;;;5.80;88.90;;;5.05;65.74;98242.41;5065257;28;20277;-87
2022/03/27 03:11:57;;;;;;;;;;;5.80;89.20;;;4.98;67.26;98238.06;5083715;28;19916;-86
2022/03/27 03:14:22;;;;;;;;;;;5.80;90.10;;;4.84;67.53;98219.78;5069557;28;20019;-85
2022/03/27 03:16:49;;;;;;;;;;;5.70;90.10;;;4.78;68.22;98215.44;5054544;28;19962;-85
2022/03/27 03:19:15;;;;;;;;;;;5.70;90.50;;;4.76;69.24;98222.41;5047957;28;19927;-88
2022/03/27 03:21:41;;;;;;;;;;;5.60;90.80;;;4.87;68.94;98234.59;5066750;28;20358;-86
2022/03/27 03:24:07;;;;;;;;;;;5.50;90.70;;;4.64;68.58;98198.03;5063469;28;19974;-83
2022/03/27 03:26:33;;;;;;;;;;;5.50;90.70;;;4.76;69.32;98243.31;5063191;28;19935;-85
2022/03/27 03:28:59;;;;;;;;;;;5.50;90.90;;;4.58;68.72;98209.34;5067033;28;19920;-86
2022/03/27 03:31:25;;;;;;;;;;;5.40;90.70;;;4.77;69.18;98259.84;5062208;28;19912;-87
2022/03/27 03:33:51;;;;;;;;;;;5.40;90.90;;;4.58;69.41;98225.03;5065345;28;19924;-87
2022/03/27 03:36:16;;;;;;;;;;;5.40;91.00;;;4.48;69.65;98207.59;5066335;28;19970;-86
2022/03/27 03:38:42;;;;;;;;;;;5.30;91.10;;;4.67;70.02;98250.31;5068176;28;20911;-86
2022/03/27 03:41:08;;;;;;;;;;;5.30;91.20;;;4.23;70.23;98189.31;5046823;28;20339;-86
2022/03/27 03:43:36;;;;;;;;;;;5.30;91.30;;;4.66;70.06;98246.78;5064247;28;19920;-87
2022/03/27 03:46:03;;;;;;;;;;;5.30;91.40;;;4.66;69.75;98249.41;5069460;28;19916;-86
2022/03/27 03:48:29;;;;;;;;;;;5.30;91.30;;;4.71;70.03;98252.03;5064171;28;20377;-86
2022/03/27 03:50:54;;;;;;;;;;;5.40;91.40;;;4.84;69.77;98263.34;5065114;28;19913;-86
2022/03/27 03:53:21;;;;;;;;;;;5.40;91.40;;;4.91;68.99;98262.47;5066128;28;20026;-87
2022/03/27 03:55:46;;;;;;;;;;;5.40;91.20;;;4.95;68.66;98269.44;5048425;28;19928;-87
2022/03/27 03:58:12;;;;;;;;;;;5.50;91.10;;;4.72;68.94;98231.13;5046233;28;19916;-86
2022/03/27 04:00:37;;;;;;;;;;;5.50;91.20;;;4.85;69.30;98260.75;5061510;28;20747;-87
2022/03/27 04:03:03;;;;;;;;;;;5.40;91.30;;;4.63;69.61;98231.13;5049070;28;19916;-86
2022/03/27 04:05:29;;;;;;;;;;;5.40;91.40;;;4.67;69.33;98245.94;5067697;28;19965;-86
2022/03/27 04:07:54;;;;;;;;;;;5.30;91.30;;;4.71;69.43;98252.91;5062786;28;19923;-87
2022/03/27 04:10:20;;;;;;;;;;;5.30;91.50;;;4.54;69.88;98241.56;5063242;28;19927;-86
2022/03/27 04:12:46;;;;;;;;;;;5.30;91.50;;;4.64;70.72;98273.81;5060931;28;19977;-86
2022/03/27 04:15:11;;;;;;;;;;;5.20;91.80;;;4.47;70.90;98252.88;5065506;28;19954;-86
2022/03/27 04:17:44;;;;;;;;;;;5.10;91.90;;;4.52;70.38;98261.59;5044602;28;20001;-85
2022/03/27 04:20:13;;;;;;;;;;;5.10;91.80;;;4.44;70.66;98264.19;5047317;28;19920;-86
2022/03/27 04:22:42;;;;;;;;;;;5.00;91.80;;;4.40;70.94;98268.56;5049667;28;19925;-85
2022/03/27 04:25:09;;;;;;;;;;;4.90;91.90;;;4.12;71.07;98225.84;5062438;28;19960;-86
2022/03/27 04:27:35;;;;;;;;;;;4.90;92.10;;;4.31;70.91;98255.47;5060727;28;19924;-86
2022/03/27 04:30:03;;;;;;;;;;;4.90;92.10;;;3.95;70.75;98194.50;5062977;28;20434;-86
2022/03/27 04:32:29;;;;;;;;;;;4.90;92.10;;;4.11;70.76;98228.44;5065305;28;19920;-86
2022/03/27 04:34:54;;;;;;;;;;;4.90;92.20;;;4.13;71.44;98238.03;5062088;28;19920;-86
2022/03/27 04:37:20;;;;;;;;;;;4.90;92.40;;;4.11;71.45;98250.22;5081619;28;19920;-86
2022/03/27 04:39:45;;;;;;;;;;;4.80;92.30;;;4.09;72.06;98245.84;5066557;28;19916;-86
2022/03/27 04:42:11;;;;;;;;;;;4.80;92.60;;;3.94;72.98;98237.09;5060164;28;20333;-86
2022/03/27 04:44:37;;;;;;;;;;;4.80;92.80;;;3.77;73.71;98223.16;5059501;28;19931;-85
2022/03/27 04:47:03;;;;;;;;;;;4.70;93.00;;;3.75;74.54;98224.88;5051295;28;20362;-85
2022/03/27 04:49:28;;;;;;;;;;;4.70;93.30;;;3.94;74.65;98268.44;5078402;28;19927;-86
2022/03/27 04:51:54;;;;;;;;;;;4.70;93.40;;;3.74;75.08;98247.50;5059201;28;19924;-85
2022/03/27 04:54:20;;;;;;;;;;;4.60;93.60;;;3.76;75.73;98256.19;5047025;28;19928;-87
2022/03/27 04:56:45;;;;;;;;;;;4.50;93.80;;;3.75;76.17;98249.25;5056985;28;19916;-85
2022/03/27 04:59:11;;;;;;;;;;;4.50;94.00;;;3.72;76.66;98250.97;5047388;28;19924;-85
2022/03/27 05:01:37;;;;;;;;;;;4.50;94.30;;;3.84;75.41;98277.13;5063148;28;20380;-86
2022/03/27 05:04:03;;;;;;;;;;;4.40;94.10;;;3.60;75.35;98234.38;5063496;28;19952;-85
2022/03/27 05:06:29;;;;;;;;;;;4.40;94.00;;;3.69;74.37;98250.94;5064113;28;19930;-85
2022/03/27 05:08:58;;;;;;;;;;;4.40;93.90;;;3.83;73.87;98275.34;5081167;28;19920;-86
2022/03/27 05:11:25;;;;;;;;;;;4.40;93.70;;;3.59;74.44;98245.69;5057067;28;19936;-86
2022/03/27 05:13:51;;;;;;;;;;;4.40;94.30;;;3.49;76.08;98232.59;5058595;28;19934;-86
2022/03/27 05:16:17;;;;;;;;;;;4.40;94.40;;;3.65;76.23;98259.63;5056739;28;19920;-86
2022/03/27 05:18:42;;;;;;;;;;;4.40;94.60;;;3.57;77.01;98251.75;5059752;28;19978;-85
2022/03/27 05:21:08;;;;;;;;;;;4.40;94.90;;;3.69;76.50;98272.69;5055402;28;19916;-86
2022/03/27 05:23:34;;;;;;;;;;;4.40;94.80;;;3.58;76.42;98254.38;5080467;28;19924;-86
2022/03/27 05:26:00;;;;;;;;;;;4.40;94.80;;;3.77;76.24;98275.34;5047981;28;20050;-86
2022/03/27 05:28:26;;;;;;;;;;;4.40;94.70;;;3.63;76.24;98254.41;5078280;28;19999;-86
2022/03/27 05:30:54;;;;;;;;;;;4.40;94.70;;;3.70;76.68;98265.75;5075764;28;19943;-89
2022/03/27 05:33:20;;;;;;;;;;;4.40;94.90;;;3.75;77.02;98287.47;5059972;28;19935;-86
2022/03/27 05:35:45;;;;;;;;;;;4.40;95.00;;;3.71;76.99;98281.38;5059097;28;20156;-85
2022/03/27 05:38:11;;;;;;;;;;;4.40;95.10;;;3.54;77.65;98242.19;5060506;28;19939;-85
2022/03/27 05:40:37;;;;;;;;;;;4.40;95.40;;;3.70;78.95;98270.97;5060827;28;20028;-85
2022/03/27 05:43:02;;;;;;;;;;;4.40;95.80;;;3.74;80.51;98294.44;5057071;28;19924;-86
2022/03/27 05:45:28;;;;;;;;;;;4.40;96.20;;;3.73;80.50;98281.38;5041510;28;19926;-85
2022/03/27 05:47:54;;;;;;;;;;;4.40;96.50;;;3.83;80.67;98294.50;5042064;28;19924;-89
2022/03/27 05:50:22;;;;;;;;;;;4.50;96.70;;;3.88;80.87;98289.28;5062451;28;19923;-85
2022/03/27 05:52:49;;;;;;;;;;;4.50;96.90;;;3.79;81.47;98282.31;5060394;28;20305;-85
2022/03/27 05:55:15;;;;;;;;;;;4.60;97.20;;;3.95;81.40;98304.13;5055427;28;19920;-87
2022/03/27 05:57:42;;;;;;;;;;;4.60;97.30;;;3.93;81.63;98289.28;5041224;28;20227;-86
2022/03/27 06:00:12;;;;;;;;;;;4.70;97.40;;;3.92;81.87;98283.22;5060656;28;19934;-85
2022/03/27 06:02:38;;;;;;;;;;;4.70;97.70;;;3.75;81.87;98249.25;5065524;28;19920;-85
2022/03/27 06:05:05;;;;;;;;;;;4.80;97.80;;;4.09;82.40;98301.56;5064718;28;19966;-87
2022/03/27 06:07:30;;;;;;;;;;;4.80;98.00;;;4.24;82.83;98308.56;5060778;28;19916;-85
2022/03/27 06:09:56;;;;;;;;;;;4.90;98.30;;;4.30;82.91;98305.09;5063974;28;20373;-85
2022/03/27 06:12:22;;;;;;;;;;;4.90;98.40;;;4.34;82.41;98315.56;5077095;28;20007;-87
2022/03/27 06:14:48;;;;;;;;;;;5.00;98.40;;;4.17;81.18;98257.19;5061275;28;19928;-87
2022/03/27 06:17:14;;;;;;;;;;;5.00;98.10;;;4.56;80.41;98303.41;5042409;28;19916;-86
2022/03/27 06:19:39;;;;;;;;;;;5.20;98.00;;;4.47;80.03;98273.78;5061794;28;20441;-86
2022/03/27 06:22:05;;;;;;;;;;;5.30;97.80;;;4.71;79.67;98299.06;5079931;28;20308;-86
2022/03/27 06:24:30;;;;;;;;;;;5.40;97.60;;;4.59;79.32;98264.22;5057472;28;19923;-86
2022/03/27 06:26:56;;;;;;;;;;;5.50;97.60;;;4.83;79.01;98303.41;5060692;28;19959;-85
2022/03/27 06:29:22;;;;;;;;;;;5.50;97.50;;;4.93;78.11;98300.81;5076765;28;20007;-87
2022/03/27 06:31:49;;;;;;;;;;;5.60;97.30;;;5.08;77.38;98297.34;5040805;28;20011;-86
2022/03/27 06:34:16;;;;;;;;;;;5.80;97.00;;;5.31;76.66;98307.78;5062740;28;19927;-86
2022/03/27 06:36:42;;;;;;;;;;;5.90;96.80;;;5.36;75.55;98297.28;5041932;28;19963;-85
2022/03/27 06:39:07;;;;;;;;;;;6.00;96.30;;;5.60;75.42;98314.69;5057664;28;19926;-87
2022/03/27 06:41:33;;;;;;;;;;;6.20;96.30;;;5.59;75.00;98291.16;5078176;28;20294;-86
2022/03/27 06:43:59;;;;;;;;;;;6.30;96.30;;;5.69;74.97;98296.34;5080486;28;19955;-85
2022/03/27 06:46:25;;;;;;;;;;;6.40;96.10;;;5.81;75.15;98308.50;5061201;28;19947;-87
2022/03/27 06:48:51;;;;;;;;;;;6.50;96.20;;;6.03;74.92;98313.69;5060070;28;20031;-86
2022/03/27 06:51:17;;;;;;;;;;;6.60;96.10;;;5.87;74.13;98281.47;5060255;28;19927;-87
2022/03/27 06:53:45;;;;;;;;;;;6.60;95.80;;;6.19;73.54;98320.63;5060525;28;19920;-86
2022/03/27 06:56:10;;;;;;;;;;;6.70;95.60;;;6.17;73.23;98295.31;5058371;28;20013;-87
2022/03/27 06:58:36;;;;;;;;;;;6.80;95.50;;;6.20;72.82;98284.81;5071127;28;19997;-86
2022/03/27 07:03:46;;;;;;;;;;;7.00;95.10;;;6.56;71.83;98317.78;5067116;28;19930;-86
2022/03/27 07:06:13;;;;;;;;;;;7.10;95.00;;;6.60;71.95;98322.13;5070642;28;20016;-87
2022/03/27 07:08:41;;;;;;;;;;;7.20;95.00;;;6.53;71.02;98301.22;5044192;28;20379;-86
2022/03/27 07:11:06;;;;;;;;;;;7.30;94.60;;;6.61;68.68;98291.56;5042493;28;20015;-86
2022/03/27 07:13:33;;;;;;;;;;;7.30;93.90;;;6.51;67.52;98261.91;5056607;28;20019;-86
2022/03/27 07:15:59;;;;;;;;;;;7.40;93.40;;;6.88;66.72;98304.47;5042729;28;19946;-87
2022/03/27 07:18:24;;;;;;;;;;;7.40;93.10;;;6.83;67.11;98281.78;5074229;28;20295;-86
2022/03/27 07:20:51;;;;;;;;;;;7.60;93.20;;;7.04;67.32;98310.47;5056589;28;19926;-87
2022/03/27 07:23:18;;;;;;;;;;;7.70;93.20;;;7.24;66.17;98330.41;5056536;28;20389;-86
2022/03/27 07:25:46;;;;;;;;;;;7.70;92.80;;;7.31;65.97;98326.00;5074623;28;19927;-86
2022/03/27 07:28:13;;;;;;;;;;;7.80;92.60;;;7.13;66.22;98311.28;5047531;28;20321;-86
2022/03/27 07:30:43;;;;;;;;;;;7.80;92.70;;;7.10;64.88;98304.28;5059744;28;19995;-85
2022/03/27 07:33:09;;;;;;;;;;;7.90;92.40;;;7.22;63.77;98326.94;5060891;28;20374;-86
2022/03/27 07:35:34;;;;;;;;;;;7.80;91.60;;;7.16;63.45;98321.72;5059012;28;19975;-85
2022/03/27 07:38:01;;;;;;;;;;;7.90;91.70;;;7.02;63.17;98309.59;5056246;28;20014;-86
2022/03/27 07:40:28;;;;;;;;;;;7.90;91.40;;;7.11;61.79;98321.78;5054782;28;20072;-87
2022/03/27 07:42:54;;;;;;;;;;;7.90;90.90;;;7.11;61.64;98323.53;5056964;28;20016;-88
2022/03/27 07:45:22;;;;;;;;;;;7.90;90.70;;;7.20;62.07;98315.59;5061840;28;20092;-87
2022/03/27 07:47:49;;;;;;;;;;;8.00;91.00;;;7.22;61.75;98317.31;5062090;28;20007;-86
2022/03/27 07:50:16;;;;;;;;;;;8.00;90.90;;;7.30;61.38;98319.84;5048275;28;19932;-85
2022/03/27 07:52:42;;;;;;;;;;;8.10;90.90;;;7.36;60.88;98318.94;5060349;28;19920;-86
2022/03/27 07:55:09;;;;;;;;;;;8.10;90.70;;;7.49;60.97;98320.56;5059705;28;20039;-90
2022/03/27 07:57:35;;;;;;;;;;;8.30;90.70;;;7.63;59.98;98325.69;5044408;28;19943;-86
2022/03/27 08:00:02;;;;;;;;;;;8.30;90.40;;;7.82;60.38;98339.47;5064728;28;19955;-86
2022/03/27 08:02:28;;;;;;;;;;;8.40;90.50;;;8.00;59.77;98344.53;5053379;28;20282;-86
2022/03/27 08:04:53;;;;;;;;;;;8.50;90.30;;;8.05;59.21;98341.84;5071942;28;19922;-88
2022/03/27 08:07:19;;;;;;;;;;;8.70;90.00;;;8.03;59.24;98330.47;5071751;28;19927;-86
2022/03/27 08:09:45;;;;;;;;;;;8.80;90.00;;;7.86;58.96;98274.63;5048737;28;19931;-85
2022/03/27 08:12:11;;;;;;;;;;;8.90;90.00;;;8.10;58.70;98308.50;5043069;28;19927;-86
2022/03/27 08:14:37;;;;;;;;;;;9.00;89.50;;;8.40;59.11;98317.75;5063959;28;19935;-86
2022/03/27 08:17:03;;;;;;;;;;;9.00;90.00;;;8.54;60.29;98316.69;5057555;28;19969;-86
2022/03/27 08:19:29;;;;;;;;;;;9.20;90.50;;;8.86;60.16;98333.78;5078117;28;20293;-86
2022/03/27 08:21:55;;;;;;;;;;;9.40;90.60;;;9.06;59.96;98313.31;5041229;28;19924;-87
2022/03/27 08:24:21;;;;;;;;;;;9.60;90.60;;;9.18;58.87;98312.22;5059145;28;19916;-88
2022/03/27 08:26:56;;;;;;;;;;;9.80;90.10;;;9.36;58.54;98337.38;5059285;28;20016;-86
2022/03/27 08:29:30;;;;;;;;;;;9.90;90.00;;;9.51;58.95;98320.41;5074816;28;19924;-86
2022/03/27 08:32:00;;;;;;;;;;;10.10;90.20;;;9.70;58.74;98316.56;5077284;28;20773;-88
2022/03/27 08:34:28;;;;;;;;;;;10.20;90.10;;;10.07;56.67;98336.94;5059558;28;19929;-87
2022/03/27 08:36:55;;;;;;;;;;;10.50;88.70;;;10.25;56.55;98350.66;5057854;28;19920;-87
2022/03/27 08:39:21;;;;;;;;;;;10.60;88.20;;;10.36;56.16;98353.97;5048521;28;19924;-86
2022/03/27 08:41:49;;;;;;;;;;;10.70;87.80;;;10.28;55.11;98311.00;5061951;28;19955;-86
2022/03/27 08:44:18;;;;;;;;;;;10.80;86.60;;;10.43;55.25;98337.09;5070372;28;19969;-86
2022/03/27 08:46:46;;;;;;;;;;;10.90;86.90;;;10.39;54.70;98321.38;5058969;28;19955;-90
2022/03/27 08:49:23;;;;;;;;;;;11.00;86.30;;;10.64;54.78;98350.72;5074578;28;19920;-91
2022/03/27 08:52:08;;;;;;;;;;;11.00;86.50;;;10.64;54.21;98346.31;5081167;28;19970;-85
2022/03/27 08:54:54;;;;;;;;;;;11.10;85.80;;;10.80;54.24;98348.59;5061149;28;19928;-87
2022/03/27 08:57:49;;;;;;;;;;;11.20;85.20;;;10.78;53.13;98334.59;5062677;28;19925;-85
2022/03/27 09:00:15;;;;;;;;;;;11.20;84.80;;;10.77;53.81;98319.69;5080046;28;19920;-85
2022/03/27 09:02:41;;;;;;;;;;;11.40;84.90;;;11.05;53.09;98355.06;5071898;28;19945;-87
2022/03/27 09:05:08;;;;;;;;;;;11.40;84.60;;;11.03;51.87;98329.59;5071115;28;19938;-85
2022/03/27 09:07:33;;;;;;;;;;;11.50;83.30;;;11.30;50.61;98338.63;5068021;28;19924;-86
2022/03/27 09:10:05;;;;;;;;;;;11.60;81.90;;;11.37;51.28;98349.91;5068254;28;19973;-85
2022/03/27 09:12:33;;;;;;;;;;;11.80;82.50;;;11.24;51.43;98313.22;5067026;28;19920;-87
2022/03/27 09:14:58;;;;;;;;;;;11.80;82.50;;;11.52;51.82;98359.19;5067559;28;20412;-87
2022/03/27 09:17:24;;;;;;;;;;;11.90;83.00;;;11.49;50.54;98340.81;5079857;28;19916;-86
2022/03/27 09:19:51;;;;;;;;;;;11.90;81.80;;;11.63;50.04;98352.75;5079778;28;19920;-87
2022/03/27 09:22:18;;;;;;;;;;;12.00;80.80;;;11.76;49.71;98363.00;5054221;28;20352;-87
2022/03/27 09:24:47;;;;;;;;;;;12.10;80.60;;;11.88;49.46;98349.47;5085386;28;20023;-85
2022/03/27 09:27:16;;;;;;;;;;;12.20;80.40;;;11.78;49.52;98329.47;5080140;28;19997;-87
2022/03/27 09:30:07;;;;;;;;;;;12.20;80.20;;;11.83;49.69;98322.28;5065905;28;19924;-86
2022/03/27 09:32:36;;;;;;;;;;;12.40;80.50;;;12.21;48.30;98350.31;5071529;28;19924;-88
2022/03/27 09:35:05;;;;;;;;;;;12.50;79.20;;;12.24;48.83;98333.53;5064500;28;19927;-87
2022/03/27 09:37:32;;;;;;;;;;;12.60;79.00;;;12.33;48.37;98338.53;5083408;28;20019;-87
2022/03/27 09:39:58;;;;;;;;;;;12.70;78.80;;;12.23;48.21;98306.19;5063120;28;19963;-87
2022/03/27 09:42:24;;;;;;;;;;;12.80;78.40;;;12.22;47.96;98304.47;5078943;28;20433;-88
2022/03/27 09:45:17;;;;;;;;;;;12.90;78.20;;;12.15;48.64;98296.72;5063734;28;19958;-85
2022/03/27 09:47:48;;;;;;;;;;;12.90;78.70;;;12.49;47.73;98341.59;5067472;28;19920;-85
2022/03/27 09:50:30;;;;;;;;;;;12.90;78.20;;;12.44;47.67;98319.72;5081826;28;20329;-85
2022/03/27 09:53:19;;;;;;;;;;;12.90;77.20;;;12.69;47.11;98342.78;5063560;28;19977;-85
2022/03/27 09:56:06;;;;;;;;;;;13.00;77.10;;;12.78;46.17;98329.28;5040289;28;20081;-85
2022/03/27 09:58:39;;;;;;;;;;;13.20;76.50;;;12.79;46.46;98318.63;5067643;28;19964;-85
2022/03/27 10:01:12;;;;;;;;;;;13.30;75.90;;;12.78;46.09;98298.34;5062010;28;20014;-85
2022/03/27 10:03:59;;;;;;;;;;;13.40;75.60;;;13.16;45.80;98341.28;5058624;28;19924;-85
2022/03/27 10:06:37;;;;;;;;;;;13.50;74.80;;;13.08;45.87;98327.44;5074735;28;19934;-86
2022/03/27 10:09:04;;;;;;;;;;;13.50;75.00;;;13.17;45.80;98342.13;5056329;28;19924;-85
2022/03/27 10:11:30;;;;;;;;;;;13.50;74.70;;;13.11;46.09;98303.47;5063237;28;20170;-85
2022/03/27 10:13:56;;;;;;;;;;;13.60;75.30;;;13.26;45.99;98290.66;5067833;28;19963;-85
2022/03/27 10:16:34;;;;;;;;;;;13.80;75.20;;;13.42;45.51;98314.88;5060631;28;20117;-85
2022/03/27 10:19:13;;;;;;;;;;;13.80;74.70;;;13.67;44.73;98329.00;5076474;28;19969;-86
2022/03/27 10:21:42;;;;;;;;;;;14.00;74.10;;;13.66;43.87;98319.34;5039740;28;20335;-86
2022/03/27 10:24:16;;;;;;;;;;;14.00;72.30;;;13.55;43.69;98301.16;5035474;28;19931;-86
2022/03/27 10:26:44;;;;;;;;;;;14.10;72.00;;;13.62;44.09;98314.19;5082899;28;20191;-86
2022/03/27 10:29:11;;;;;;;;;;;14.10;72.20;;;13.73;45.13;98326.16;5038857;28;19920;-85
2022/03/27 10:31:38;;;;;;;;;;;14.00;72.80;;;13.87;43.93;98328.34;5068667;28;19998;-85
2022/03/27 10:34:05;;;;;;;;;;;14.10;72.40;;;13.94;43.79;98319.25;5073570;28;19981;-85
2022/03/27 10:36:36;;;;;;;;;;;14.20;72.80;;;13.79;43.37;98269.41;5060094;28;19924;-84
2022/03/27 10:39:13;;;;;;;;;;;14.40;71.90;;;14.10;42.53;98297.44;5070643;28;21512;-85
2022/03/27 10:41:43;;;;;;;;;;;14.50;70.50;;;14.31;42.34;98314.38;5060645;28;19931;-84
2022/03/27 10:44:18;;;;;;;;;;;14.60;69.30;;;14.26;42.91;98314.53;5072960;28;20350;-84
2022/03/27 10:46:46;;;;;;;;;;;14.60;70.30;;;14.09;42.51;98278.03;5056202;28;19924;-84
2022/03/27 10:49:15;;;;;;;;;;;14.60;70.00;;;14.15;42.33;98276.94;5078090;28;20359;-85
2022/03/27 10:51:43;;;;;;;;;;;14.60;69.80;;;14.35;42.16;98292.09;5079182;28;19967;-84
2022/03/27 10:54:18;;;;;;;;;;;14.70;69.50;;;14.43;42.59;98305.09;5057741;28;19928;-84
2022/03/27 10:56:51;;;;;;;;;;;14.70;69.50;;;14.41;42.89;98283.91;5062785;28;19916;-84
2022/03/27 10:59:26;;;;;;;;;;;14.80;70.30;;;14.01;43.14;98204.97;5059578;28;20335;-84
2022/03/27 11:01:54;;;;;;;;;;;14.90;70.70;;;14.20;42.56;98223.72;5059274;28;19924;-84
2022/03/27 11:04:21;;;;;;;;;;;15.00;69.90;;;14.54;42.94;98299.38;5076418;28;19924;-85
2022/03/27 11:06:48;;;;;;;;;;;14.90;70.20;;;14.35;42.32;98292.09;5046899;28;19916;-84
2022/03/27 11:09:32;;;;;;;;;;;14.80;69.10;;;13.72;43.45;98212.22;5060569;28;19977;-85
2022/03/27 11:11:57;;;;;;;;;;;14.70;69.60;;;14.17;44.70;98287.47;5077173;28;19919;-85
2022/03/27 11:14:58;;;;;;;;;;;14.60;71.90;;;14.30;44.34;98288.75;5036462;28;19935;-86
2022/03/27 11:17:45;;;;;;;;;;;14.60;72.30;;;14.07;43.63;98245.38;5072222;28;20044;-86
2022/03/27 11:20:12;;;;;;;;;;;14.60;72.00;;;14.22;43.74;98275.78;5054883;28;19916;-86
2022/03/27 11:22:48;;;;;;;;;;;14.60;71.20;;;14.23;44.33;98271.31;5054167;28;20003;-85
2022/03/27 11:25:38;;;;;;;;;;;14.60;72.10;;;14.45;43.69;98261.63;5056505;28;19916;-86
2022/03/27 11:28:06;;;;;;;;;;;14.80;71.60;;;14.72;43.07;98281.88;5059714;28;19920;-86
2022/03/27 11:30:33;;;;;;;;;;;15.00;71.10;;;14.48;42.41;98239.41;5078212;28;19916;-87
2022/03/27 11:33:18;;;;;;;;;;;15.00;70.30;;;14.56;41.95;98231.16;5077282;28;20433;-86
2022/03/27 11:36:07;;;;;;;;;;;15.00;68.80;;;14.69;41.89;98254.50;5070727;28;19928;-86
2022/03/27 11:38:36;;;;;;;;;;;15.00;68.40;;;14.69;42.35;98254.50;5053898;28;19931;-85